createdAt,value
2019-03-13T00:00:41.743Z,20.74
2019-03-13T00:03:10.457Z,20.74
2019-03-13T00:05:38.829Z,20.73
2019-03-13T00:08:07.820Z,20.72
2019-03-13T00:10:36.200Z,20.71
2019-03-13T00:13:04.633Z,20.71
2019-03-13T00:15:33.009Z,20.68
2019-03-13T00:18:01.381Z,20.69
2019-03-13T00:20:29.753Z,20.69
2019-03-13T00:22:58.119Z,20.69
2019-03-13T00:25:26.571Z,20.69
2019-03-13T00:27:54.937Z,20.68
2019-03-13T00:30:23.306Z,20.67
2019-03-13T00:32:51.669Z,20.67
2019-03-13T00:35:20.044Z,20.66
2019-03-13T00:37:48.479Z,20.65
2019-03-13T00:40:16.859Z,20.64
2019-03-13T00:42:45.236Z,20.65
2019-03-13T00:45:15.324Z,20.65
2019-03-13T00:47:43.688Z,20.63
2019-03-13T00:50:23.902Z,20.63
2019-03-13T00:52:52.277Z,20.63
2019-03-13T00:55:20.722Z,20.60
2019-03-13T00:57:49.085Z,20.60
2019-03-13T01:00:35.350Z,20.59
2019-03-13T01:03:04.884Z,20.59
2019-03-13T01:05:37.751Z,20.58
2019-03-13T01:08:06.130Z,20.57
2019-03-13T01:10:34.503Z,20.55
2019-03-13T01:13:02.867Z,20.55
2019-03-13T01:15:31.237Z,20.54
2019-03-13T01:17:59.600Z,20.54
2019-03-13T01:20:27.968Z,20.53
2019-03-13T01:22:56.347Z,20.54
2019-03-13T01:25:24.723Z,20.53
2019-03-13T01:27:53.101Z,20.52
2019-03-13T01:30:21.468Z,20.52
2019-03-13T01:32:51.488Z,20.52
2019-03-13T01:35:21.494Z,20.51
2019-03-13T01:37:49.871Z,20.51
2019-03-13T01:40:18.262Z,20.51
2019-03-13T01:42:46.630Z,20.51
2019-03-13T01:45:15.174Z,20.49
2019-03-13T01:47:43.544Z,20.49
2019-03-13T01:50:12.977Z,20.49
2019-03-13T01:52:41.329Z,20.48
2019-03-13T01:55:10.272Z,20.47
2019-03-13T01:57:38.788Z,20.47
2019-03-13T02:00:14.907Z,20.47
2019-03-13T02:02:43.323Z,20.47
2019-03-13T02:05:11.757Z,20.46
2019-03-13T02:07:40.139Z,20.45
2019-03-13T02:10:11.500Z,20.45
2019-03-13T02:12:39.873Z,20.44
2019-03-13T02:15:14.457Z,20.45
2019-03-13T02:17:42.843Z,20.44
2019-03-13T02:20:11.547Z,20.43
2019-03-13T02:22:39.919Z,20.43
2019-03-13T02:25:10.838Z,20.43
2019-03-13T02:27:39.222Z,20.42
2019-03-13T02:30:13.604Z,20.41
2019-03-13T02:32:41.979Z,20.42
2019-03-13T02:35:10.413Z,20.41
2019-03-13T02:37:38.993Z,20.42
2019-03-13T02:40:15.181Z,20.40
2019-03-13T02:42:43.724Z,20.39
2019-03-13T02:45:13.238Z,20.38
2019-03-13T02:47:41.613Z,20.38
2019-03-13T02:50:14.923Z,20.38
2019-03-13T02:52:43.531Z,20.38
2019-03-13T02:55:12.268Z,20.37
2019-03-13T02:57:40.644Z,20.37
2019-03-13T03:00:15.328Z,20.36
2019-03-13T03:02:51.543Z,20.37
2019-03-13T03:05:19.924Z,20.36
2019-03-13T03:07:48.296Z,20.36
2019-03-13T03:10:16.741Z,20.35
2019-03-13T03:12:45.105Z,20.34
2019-03-13T03:15:18.366Z,20.34
2019-03-13T03:17:46.879Z,20.34
2019-03-13T03:20:17.481Z,20.34
2019-03-13T03:22:45.862Z,20.33
2019-03-13T03:25:16.102Z,20.33
2019-03-13T03:27:44.496Z,20.31
2019-03-13T03:30:24.351Z,20.30
2019-03-13T03:32:52.728Z,20.31
2019-03-13T03:35:21.266Z,20.30
2019-03-13T03:37:49.705Z,20.30
2019-03-13T03:40:22.380Z,20.30
2019-03-13T03:42:49.320Z,20.29
2019-03-13T03:45:17.978Z,20.29
2019-03-13T03:47:46.468Z,20.29
2019-03-13T03:50:17.104Z,20.29
2019-03-13T03:52:45.914Z,20.28
2019-03-13T03:55:15.837Z,20.28
2019-03-13T03:57:44.211Z,20.27
2019-03-13T04:00:14.215Z,20.27
2019-03-13T04:02:42.649Z,20.27
2019-03-13T04:05:11.368Z,20.26
2019-03-13T04:07:39.734Z,20.26
2019-03-13T04:10:12.894Z,20.26
2019-03-13T04:12:41.375Z,20.26
2019-03-13T04:15:15.582Z,20.26
2019-03-13T04:17:44.008Z,20.25
2019-03-13T04:20:13.724Z,20.24
2019-03-13T04:22:42.087Z,20.23
2019-03-13T04:25:12.711Z,20.24
2019-03-13T04:27:41.079Z,20.23
2019-03-13T04:30:11.992Z,20.25
2019-03-13T04:32:40.356Z,20.24
2019-03-13T04:35:09.788Z,20.23
2019-03-13T04:37:38.155Z,20.24
2019-03-13T04:40:09.070Z,20.22
2019-03-13T04:42:37.441Z,20.22
2019-03-13T04:45:07.047Z,20.21
2019-03-13T04:47:35.409Z,20.21
2019-03-13T04:50:06.065Z,20.20
2019-03-13T04:52:34.522Z,20.21
2019-03-13T04:55:03.057Z,20.21
2019-03-13T04:57:31.422Z,20.21
2019-03-13T05:00:00.033Z,20.21
2019-03-13T05:02:28.409Z,20.20
2019-03-13T05:04:56.773Z,20.20
2019-03-13T05:07:25.139Z,20.19
2019-03-13T05:09:53.517Z,20.19
2019-03-13T05:12:21.958Z,20.19
2019-03-13T05:14:50.328Z,20.19
2019-03-13T05:17:18.701Z,20.18
2019-03-13T05:19:47.068Z,20.17
2019-03-13T05:22:15.441Z,20.17
2019-03-13T05:24:43.804Z,20.20
2019-03-13T05:27:12.182Z,20.21
2019-03-13T05:29:40.549Z,20.20
2019-03-13T05:32:08.936Z,20.18
2019-03-13T05:34:37.309Z,20.17
2019-03-13T05:37:05.691Z,20.15
2019-03-13T05:39:34.053Z,20.16
2019-03-13T05:42:02.441Z,20.16
2019-03-13T05:44:31.080Z,20.14
2019-03-13T05:46:59.454Z,20.15
2019-03-13T05:49:27.828Z,20.15
2019-03-13T05:51:56.201Z,20.14
2019-03-13T05:54:24.569Z,20.15
2019-03-13T05:56:52.949Z,20.14
2019-03-13T05:59:21.318Z,20.14
2019-03-13T06:01:49.694Z,20.14
2019-03-13T06:04:18.069Z,20.14
2019-03-13T06:06:46.535Z,20.13
2019-03-13T06:09:14.893Z,20.13
2019-03-13T06:11:43.271Z,20.11
2019-03-13T06:14:11.760Z,20.11
2019-03-13T06:16:40.582Z,20.10
2019-03-13T06:19:08.953Z,20.10
2019-03-13T06:21:37.331Z,20.10
2019-03-13T06:24:05.700Z,20.11
2019-03-13T06:26:34.187Z,20.10
2019-03-13T06:29:02.527Z,20.09
2019-03-13T06:31:30.913Z,20.08
2019-03-13T06:33:59.285Z,20.10
2019-03-13T06:36:27.650Z,20.09
2019-03-13T06:38:56.031Z,20.09
2019-03-13T06:41:24.401Z,20.08
2019-03-13T06:43:52.784Z,20.08
2019-03-13T06:46:21.158Z,20.08
2019-03-13T06:48:49.699Z,20.07
2019-03-13T06:51:18.067Z,20.09
2019-03-13T06:53:46.442Z,20.07
2019-03-13T06:56:14.812Z,20.08
2019-03-13T06:58:44.829Z,20.07
2019-03-13T07:01:24.054Z,20.08
2019-03-13T07:04:10.447Z,20.08
2019-03-13T07:06:58.835Z,20.09
2019-03-13T07:09:31.916Z,20.09
2019-03-13T07:12:11.034Z,20.08
2019-03-13T07:14:46.765Z,20.07
2019-03-13T07:17:19.880Z,20.09
2019-03-13T07:19:49.895Z,20.08
2019-03-13T07:22:22.600Z,20.07
2019-03-13T07:24:55.032Z,20.08
2019-03-13T07:27:43.132Z,20.07
2019-03-13T07:30:29.236Z,20.08
2019-03-13T07:33:08.183Z,20.06
2019-03-13T07:35:54.345Z,20.04
2019-03-13T07:38:27.017Z,20.04
2019-03-13T07:40:57.019Z,20.03
2019-03-13T07:43:27.033Z,20.03
2019-03-13T07:45:57.043Z,20.02
2019-03-13T07:48:39.109Z,20.01
2019-03-13T07:51:12.064Z,20.01
2019-03-13T07:53:59.204Z,20.01
2019-03-13T07:56:41.497Z,20.02
2019-03-13T07:59:27.506Z,20.02
2019-03-13T08:01:57.509Z,20.01
2019-03-13T08:04:29.929Z,20.00
2019-03-13T08:06:59.938Z,20.01
2019-03-13T08:09:48.239Z,20.01
2019-03-13T08:12:29.951Z,20.01
2019-03-13T08:14:59.968Z,20.01
2019-03-13T08:17:29.979Z,20.00
2019-03-13T08:20:16.584Z,20.04
2019-03-13T08:23:01.828Z,20.04
2019-03-13T08:25:37.843Z,20.02
2019-03-13T08:28:23.846Z,20.01
2019-03-13T08:30:56.488Z,20.00
2019-03-13T08:33:26.491Z,19.97
2019-03-13T08:35:56.524Z,19.97
2019-03-13T08:38:26.537Z,19.96
2019-03-13T08:41:11.611Z,19.96
2019-03-13T08:43:44.661Z,19.98
2019-03-13T08:46:17.541Z,19.99
2019-03-13T08:48:53.395Z,19.98
2019-03-13T08:51:26.100Z,19.98
2019-03-13T08:54:02.077Z,19.96
2019-03-13T08:56:40.587Z,19.97
2019-03-13T08:59:10.597Z,19.97
2019-03-13T09:01:43.558Z,19.96
2019-03-13T09:04:19.780Z,19.97
2019-03-13T09:07:06.118Z,19.97
2019-03-13T09:09:44.937Z,19.94
2019-03-13T09:12:14.936Z,19.94
2019-03-13T09:14:47.590Z,19.92
2019-03-13T09:17:20.544Z,19.94
2019-03-13T09:20:05.392Z,19.93
2019-03-13T09:22:47.282Z,19.92
2019-03-13T09:25:23.028Z,19.92
2019-03-13T09:27:53.070Z,19.91
2019-03-13T09:30:37.822Z,19.91
2019-03-13T09:33:19.878Z,19.91
2019-03-13T09:35:55.607Z,19.82
2019-03-13T09:38:41.765Z,19.82
2019-03-13T09:41:24.082Z,19.86
2019-03-13T09:43:59.707Z,19.86
2019-03-13T09:46:44.976Z,19.84
2019-03-13T09:49:15.035Z,19.83
2019-03-13T09:51:50.650Z,19.83
2019-03-13T09:54:26.704Z,19.83
2019-03-13T09:57:12.590Z,19.83
2019-03-13T09:59:48.764Z,19.82
2019-03-13T10:02:18.789Z,19.80
2019-03-13T10:04:54.821Z,19.80
2019-03-13T10:07:42.979Z,19.82
2019-03-13T10:10:13.037Z,19.82
2019-03-13T10:12:43.085Z,19.82
2019-03-13T10:15:15.680Z,19.81
2019-03-13T10:17:54.837Z,19.80
2019-03-13T10:20:30.591Z,19.81
2019-03-13T10:23:00.604Z,19.82
2019-03-13T10:25:39.778Z,19.81
2019-03-13T10:28:09.860Z,19.81
2019-03-13T10:30:39.945Z,19.81
2019-03-13T10:33:22.140Z,19.80
2019-03-13T10:36:08.502Z,19.81
2019-03-13T10:38:54.573Z,19.80
2019-03-13T10:41:33.400Z,19.81
2019-03-13T10:44:08.926Z,19.80
2019-03-13T10:46:38.930Z,19.78
2019-03-13T10:49:25.040Z,19.78
2019-03-13T10:52:10.378Z,19.78
2019-03-13T10:54:58.251Z,19.77
2019-03-13T10:57:44.942Z,19.78
2019-03-13T11:00:27.715Z,19.77
2019-03-13T11:03:14.526Z,19.76
2019-03-13T11:06:01.157Z,19.75
2019-03-13T11:08:43.070Z,19.74
2019-03-13T11:11:13.071Z,19.73
2019-03-13T11:14:14.540Z,19.73
2019-03-13T11:16:32.976Z,19.72
2019-03-13T11:19:05.709Z,19.73
2019-03-13T11:21:41.695Z,19.74
2019-03-13T11:24:11.801Z,19.74
2019-03-13T11:26:45.077Z,19.75
2019-03-13T11:29:17.925Z,19.77
2019-03-13T11:31:53.973Z,19.75
2019-03-13T11:34:23.989Z,19.75
2019-03-13T11:36:53.995Z,19.74
2019-03-13T11:39:40.602Z,19.75
2019-03-13T11:42:19.418Z,19.76
2019-03-13T11:44:58.454Z,19.75
2019-03-13T11:47:42.257Z,19.73
2019-03-13T11:50:11.758Z,19.71
2019-03-13T11:52:58.046Z,19.70
2019-03-13T11:55:46.290Z,19.69
2019-03-13T11:58:16.307Z,19.69
2019-03-13T12:00:46.310Z,19.70
2019-03-13T12:03:34.436Z,19.69
2019-03-13T12:06:20.702Z,19.69
2019-03-13T12:08:53.465Z,19.68
2019-03-13T12:11:35.725Z,19.68
2019-03-13T12:14:08.537Z,19.70
2019-03-13T12:16:38.545Z,19.71
2019-03-13T12:19:08.562Z,19.72
2019-03-13T12:21:38.562Z,19.71
2019-03-13T12:24:08.584Z,19.70
2019-03-13T12:26:38.588Z,19.69
2019-03-13T12:29:23.962Z,19.69
2019-03-13T12:31:59.433Z,19.67
2019-03-13T12:34:29.452Z,19.67
2019-03-13T12:37:02.023Z,19.67
2019-03-13T12:39:37.721Z,19.66
2019-03-13T12:42:16.674Z,19.64
2019-03-13T12:44:56.007Z,19.65
2019-03-13T12:47:26.012Z,19.65
2019-03-13T12:50:12.095Z,19.64
2019-03-13T12:52:51.139Z,19.65
2019-03-13T12:55:21.157Z,19.66
2019-03-13T12:58:02.926Z,19.66
2019-03-13T13:00:35.353Z,19.64
2019-03-13T13:03:08.069Z,19.64
2019-03-13T13:05:40.683Z,19.63
2019-03-13T13:08:16.590Z,19.63
2019-03-13T13:10:49.013Z,19.62
2019-03-13T13:13:24.754Z,19.61
2019-03-13T13:16:09.899Z,19.61
2019-03-13T13:18:40.072Z,19.59
2019-03-13T13:21:08.727Z,19.58
2019-03-13T13:23:37.188Z,19.58
2019-03-13T13:26:05.705Z,19.56
2019-03-13T13:28:34.073Z,19.58
2019-03-13T13:31:02.445Z,19.57
2019-03-13T13:33:30.883Z,19.58
2019-03-13T13:35:59.265Z,19.60
2019-03-13T13:38:27.695Z,19.58
2019-03-13T13:40:56.080Z,19.57
2019-03-13T13:43:24.433Z,19.58
2019-03-13T13:45:58.995Z,19.59
2019-03-13T13:48:27.534Z,19.60
2019-03-13T13:50:55.937Z,19.61
2019-03-13T13:53:24.468Z,19.60
2019-03-13T13:55:52.843Z,19.62
2019-03-13T13:58:21.204Z,19.64
2019-03-13T14:00:49.568Z,19.64
2019-03-13T14:03:17.943Z,19.64
2019-03-13T14:05:46.322Z,19.66
2019-03-13T14:08:14.771Z,19.66
2019-03-13T14:10:43.205Z,19.66
2019-03-13T14:13:11.599Z,19.66
2019-03-13T14:15:40.034Z,19.66
2019-03-13T14:18:08.536Z,19.65
2019-03-13T14:20:36.844Z,19.67
2019-03-13T14:23:05.362Z,19.69
2019-03-13T14:25:33.730Z,19.70
2019-03-13T14:28:02.107Z,19.72
2019-03-13T14:30:30.716Z,19.71
2019-03-13T14:32:59.084Z,19.72
2019-03-13T14:35:27.763Z,19.72
2019-03-13T14:37:56.276Z,19.72
2019-03-13T14:40:24.641Z,19.73
2019-03-13T14:42:53.080Z,19.74
2019-03-13T14:45:21.516Z,19.74
2019-03-13T14:47:50.832Z,19.75
2019-03-13T14:50:23.008Z,19.77
2019-03-13T14:52:51.375Z,19.80
2019-03-13T14:55:19.911Z,19.80
2019-03-13T14:57:49.295Z,19.82
2019-03-13T15:00:23.389Z,19.80
2019-03-13T15:02:52.030Z,19.80
2019-03-13T15:05:20.403Z,19.80
2019-03-13T15:07:48.877Z,19.79
2019-03-13T15:10:23.869Z,19.80
2019-03-13T15:12:52.387Z,19.79
2019-03-13T15:15:21.866Z,19.81
2019-03-13T15:17:53.208Z,19.83
2019-03-13T15:20:22.608Z,19.83
2019-03-13T15:22:50.975Z,19.83
2019-03-13T15:25:19.364Z,19.80
2019-03-13T15:27:47.727Z,19.80
2019-03-13T15:30:23.912Z,19.84
2019-03-13T15:32:52.277Z,19.85
2019-03-13T15:35:20.665Z,19.86
2019-03-13T15:37:49.030Z,19.88
2019-03-13T15:40:18.746Z,19.85
2019-03-13T15:42:47.747Z,19.85
2019-03-13T15:45:23.986Z,19.87
2019-03-13T15:47:52.360Z,19.88
2019-03-13T15:50:20.733Z,19.89
2019-03-13T15:52:49.101Z,19.89
2019-03-13T15:55:18.550Z,19.90
2019-03-13T15:57:47.077Z,19.92
2019-03-13T16:00:23.753Z,19.92
2019-03-13T16:02:55.393Z,19.92
2019-03-13T16:05:22.554Z,19.94
2019-03-13T16:07:51.094Z,19.95
2019-03-13T16:10:20.712Z,19.95
2019-03-13T16:12:49.084Z,20.00
2019-03-13T16:15:40.153Z,20.00
2019-03-13T16:18:08.523Z,20.02
2019-03-13T16:20:36.901Z,20.03
2019-03-13T16:23:05.433Z,20.05
2019-03-13T16:25:33.884Z,20.08
2019-03-13T16:28:02.252Z,20.09
2019-03-13T16:30:32.301Z,20.10
2019-03-13T16:33:00.665Z,20.12
2019-03-13T16:35:29.041Z,20.14
2019-03-13T16:37:57.517Z,20.15
2019-03-13T16:40:25.901Z,20.15
2019-03-13T16:42:54.336Z,20.17
2019-03-13T16:45:24.491Z,20.18
2019-03-13T16:47:54.396Z,20.19
2019-03-13T16:50:33.861Z,20.20
2019-03-13T16:53:02.230Z,20.19
2019-03-13T16:55:30.622Z,20.19
2019-03-13T16:57:59.078Z,20.20
2019-03-13T17:00:29.565Z,20.20
2019-03-13T17:02:58.010Z,20.21
2019-03-13T17:05:26.713Z,20.22
2019-03-13T17:07:55.096Z,20.23
2019-03-13T17:10:28.517Z,20.24
2019-03-13T17:12:56.973Z,20.24
2019-03-13T17:15:26.290Z,20.25
2019-03-13T17:17:54.939Z,20.24
2019-03-13T17:20:31.138Z,20.25
2019-03-13T17:22:59.525Z,20.24
2019-03-13T17:25:27.902Z,20.25
2019-03-13T17:27:56.300Z,20.25
2019-03-13T17:30:26.786Z,20.25
2019-03-13T17:32:55.247Z,20.25
2019-03-13T17:35:24.062Z,20.23
2019-03-13T17:37:52.877Z,20.25
2019-03-13T17:40:29.210Z,20.24
2019-03-13T17:42:57.810Z,20.24
2019-03-13T17:45:26.349Z,20.24
2019-03-13T17:47:54.809Z,20.23
2019-03-13T17:50:24.316Z,20.23
2019-03-13T17:52:53.056Z,20.24
2019-03-13T17:55:22.657Z,20.23
2019-03-13T17:57:51.107Z,20.23
2019-03-13T18:00:22.337Z,20.24
2019-03-13T18:02:50.787Z,20.23
2019-03-13T18:05:19.373Z,20.25
2019-03-13T18:07:47.855Z,20.27
2019-03-13T18:10:20.430Z,20.29
2019-03-13T18:12:48.886Z,20.31
2019-03-13T18:15:18.101Z,20.32
2019-03-13T18:17:46.678Z,20.33
2019-03-13T18:20:23.003Z,20.33
2019-03-13T18:22:51.385Z,20.34
2019-03-13T18:25:19.756Z,20.35
2019-03-13T18:27:48.210Z,20.35
2019-03-13T18:30:21.513Z,20.36
2019-03-13T18:32:50.207Z,20.37
2019-03-13T18:35:19.375Z,20.37
2019-03-13T18:37:47.851Z,20.39
2019-03-13T18:40:20.467Z,20.40
2019-03-13T18:42:48.991Z,20.41
2019-03-13T18:45:22.480Z,20.41
2019-03-13T18:47:50.926Z,20.43
2019-03-13T18:50:20.109Z,20.42
2019-03-13T18:52:48.489Z,20.44
2019-03-13T18:55:19.071Z,20.45
2019-03-13T18:57:50.540Z,20.44
2019-03-13T19:00:23.330Z,20.46
2019-03-13T19:02:51.771Z,20.46
2019-03-13T19:05:20.315Z,20.48
2019-03-13T19:07:48.818Z,20.50
2019-03-13T19:10:22.282Z,20.50
2019-03-13T19:12:50.728Z,20.50
2019-03-13T19:15:23.311Z,20.51
2019-03-13T19:17:51.836Z,20.52
2019-03-13T19:20:24.448Z,20.53
2019-03-13T19:22:53.091Z,20.53
2019-03-13T19:25:21.535Z,20.52
2019-03-13T19:27:50.045Z,20.53
2019-03-13T19:30:37.500Z,20.53
2019-03-13T19:33:05.018Z,20.52
2019-03-13T19:35:33.495Z,20.53
2019-03-13T19:38:13.828Z,20.53
2019-03-13T19:40:42.226Z,20.52
2019-03-13T19:43:10.601Z,20.54
2019-03-13T19:45:44.093Z,20.53
2019-03-13T19:48:12.631Z,20.54
2019-03-13T19:50:41.014Z,20.53
2019-03-13T19:53:09.380Z,20.54
2019-03-13T19:55:37.755Z,20.54
2019-03-13T19:58:06.126Z,20.54
2019-03-13T20:00:34.509Z,20.55
2019-03-13T20:03:14.658Z,20.55
2019-03-13T20:05:45.925Z,20.55
2019-03-13T20:08:14.092Z,20.55
2019-03-13T20:10:42.670Z,20.54
2019-03-13T20:13:11.037Z,20.55
2019-03-13T20:15:39.409Z,20.54
2019-03-13T20:18:07.846Z,20.55
2019-03-13T20:20:36.226Z,20.55
2019-03-13T20:23:15.234Z,20.55
2019-03-13T20:25:43.648Z,20.55
2019-03-13T20:28:11.951Z,20.54
2019-03-13T20:30:40.468Z,20.55
2019-03-13T20:33:09.139Z,20.60
2019-03-13T20:35:37.488Z,20.63
2019-03-13T20:38:05.854Z,20.63
2019-03-13T20:40:34.229Z,20.66
2019-03-13T20:43:03.126Z,20.65
2019-03-13T20:45:31.920Z,20.67
2019-03-13T20:48:00.279Z,20.65
2019-03-13T20:50:36.764Z,20.65
2019-03-13T20:52:58.761Z,20.61
2019-03-13T20:55:27.132Z,20.58
2019-03-13T20:57:55.537Z,20.58
2019-03-13T21:00:24.954Z,20.58
2019-03-13T21:02:55.406Z,20.58
2019-03-13T21:05:24.121Z,20.57
2019-03-13T21:07:53.046Z,20.55
2019-03-13T21:10:21.837Z,20.54
2019-03-13T21:12:50.222Z,20.54
2019-03-13T21:15:24.208Z,20.54
2019-03-13T21:17:52.681Z,20.54
2019-03-13T21:20:21.550Z,20.53
2019-03-13T21:22:50.486Z,20.50
2019-03-13T21:25:25.736Z,20.51
2019-03-13T21:27:54.191Z,20.49
2019-03-13T21:30:23.900Z,20.49
2019-03-13T21:32:52.383Z,20.47
2019-03-13T21:35:20.983Z,20.47
2019-03-13T21:37:49.361Z,20.46
2019-03-13T21:40:25.742Z,20.45
2019-03-13T21:42:56.300Z,20.44
2019-03-13T21:45:24.731Z,20.43
2019-03-13T21:47:53.292Z,20.43
2019-03-13T21:50:22.083Z,20.41
2019-03-13T21:52:50.484Z,20.41
2019-03-13T21:55:19.307Z,20.39
2019-03-13T21:57:51.546Z,20.40
2019-03-13T22:00:26.660Z,20.39
2019-03-13T22:02:55.204Z,20.38
2019-03-13T22:05:26.665Z,20.37
2019-03-13T22:07:54.079Z,20.36
2019-03-13T22:10:23.085Z,20.34
2019-03-13T22:12:51.915Z,20.35
2019-03-13T22:15:22.459Z,20.34
2019-03-13T22:17:50.939Z,20.31
2019-03-13T22:20:19.854Z,20.32
2019-03-13T22:22:48.684Z,20.31
2019-03-13T22:25:18.957Z,20.29
2019-03-13T22:27:47.775Z,20.30
2019-03-13T22:30:23.965Z,20.29
2019-03-13T22:32:53.284Z,20.29
2019-03-13T22:35:21.725Z,20.27
2019-03-13T22:37:50.278Z,20.27
2019-03-13T22:40:19.348Z,20.26
2019-03-13T22:42:48.866Z,20.26
2019-03-13T22:45:21.420Z,20.25
2019-03-13T22:47:49.880Z,20.24
2019-03-13T22:50:25.362Z,20.23
2019-03-13T22:52:53.812Z,20.23
2019-03-13T22:55:22.257Z,20.22
2019-03-13T22:57:50.645Z,20.21
2019-03-13T23:00:53.755Z,20.21
2019-03-13T23:03:24.174Z,20.20
2019-03-13T23:05:52.543Z,20.19
2019-03-13T23:08:20.991Z,20.17
2019-03-13T23:10:49.363Z,20.17
2019-03-13T23:13:17.971Z,20.17
2019-03-13T23:15:46.685Z,20.17
2019-03-13T23:18:17.958Z,20.17
2019-03-13T23:20:45.140Z,20.16
2019-03-13T23:23:13.532Z,20.16
2019-03-13T23:25:41.892Z,20.16
2019-03-13T23:28:10.277Z,20.15
2019-03-13T23:30:38.642Z,20.14
2019-03-13T23:33:07.093Z,20.15
2019-03-13T23:35:35.461Z,20.15
2019-03-13T23:38:04.230Z,20.15
2019-03-13T23:40:32.571Z,20.14
2019-03-13T23:43:00.942Z,20.12
2019-03-13T23:45:29.323Z,20.12
2019-03-13T23:47:57.688Z,20.11
2019-03-13T23:50:26.237Z,20.11
2019-03-13T23:52:54.598Z,20.10
2019-03-13T23:55:22.981Z,20.10
2019-03-13T23:57:51.344Z,20.10
